Time;durP1;ratioP1;P1;durP2;ratioP2;P2;SDS_P1;SDS_P2;PMS_P1;PMS_P2;Temp;Humidity;BMP_temperature;BMP_pressure;BME280_temperature;BME280_humidity;BME280_pressure;Samples;Min_cycle;Max_cycle;Signal;HPM_P1;HPM_P2
2022/06/13 00:00:10;;;;;;;5.50;4.28;;;14.10;99.90;;;;;;5088179;28;20523;-56
2022/06/13 00:02:37;;;;;;;5.93;4.35;;;14.10;99.90;;;;;;5069640;28;20036;-57
2022/06/13 00:05:05;;;;;;;5.25;3.83;;;14.10;99.90;;;;;;5079294;28;20467;-56
2022/06/13 00:07:31;;;;;;;4.68;4.28;;;14.10;99.90;;;;;;5090149;28;20030;-56
2022/06/13 00:09:57;;;;;;;9.02;3.83;;;14.10;99.90;;;;;;5088341;28;20016;-56
2022/06/13 00:12:24;;;;;;;5.97;4.13;;;14.00;99.90;;;;;;5090210;28;20482;-57
2022/06/13 00:14:49;;;;;;;11.32;4.20;;;14.00;99.90;;;;;;5076891;28;20024;-57
2022/06/13 00:17:15;;;;;;;12.63;4.57;;;14.00;99.90;;;;;;5071390;28;20464;-57
2022/06/13 00:19:41;;;;;;;7.70;3.85;;;14.00;99.90;;;;;;5072393;28;20379;-56
2022/06/13 00:22:06;;;;;;;10.88;4.40;;;14.00;99.90;;;;;;5072379;28;20032;-55
2022/06/13 00:24:32;;;;;;;16.20;4.78;;;13.90;99.90;;;;;;5069680;28;20040;-56
2022/06/13 00:26:58;;;;;;;4.57;4.15;;;13.90;99.90;;;;;;5073622;28;20470;-56
2022/06/13 00:29:24;;;;;;;6.63;4.20;;;13.90;99.90;;;;;;5072024;28;20074;-55
2022/06/13 00:31:49;;;;;;;9.30;4.68;;;13.90;99.90;;;;;;5067855;28;20025;-57
2022/06/13 00:34:15;;;;;;;12.88;4.28;;;13.90;99.90;;;;;;5070401;28;20071;-56
2022/06/13 00:36:41;;;;;;;6.43;4.50;;;13.80;99.90;;;;;;5069840;28;20036;-56
2022/06/13 00:39:07;;;;;;;5.85;4.13;;;13.90;99.90;;;;;;5070392;28;20079;-57
2022/06/13 00:41:37;;;;;;;7.95;4.18;;;14.00;99.90;;;;;;5072203;28;20028;-55
2022/06/13 00:44:29;;;;;;;10.63;4.75;;;14.10;99.90;;;;;;5073742;28;20020;-57
2022/06/13 00:46:55;;;;;;;5.72;3.65;;;14.10;99.90;;;;;;5073125;28;20027;-57
2022/06/13 00:49:37;;;;;;;9.23;4.28;;;14.10;99.90;;;;;;5073381;28;20375;-55
2022/06/13 00:52:17;;;;;;;4.35;3.22;;;14.10;99.90;;;;;;5073779;28;20020;-56
2022/06/13 00:54:45;;;;;;;8.45;3.63;;;14.10;99.90;;;;;;5089099;28;20482;-57
2022/06/13 00:57:18;;;;;;;9.48;4.78;;;14.00;99.90;;;;;;5076132;28;20020;-55
2022/06/13 00:59:45;;;;;;;9.80;4.25;;;14.10;99.90;;;;;;5093527;28;20107;-56
2022/06/13 01:02:11;;;;;;;18.83;4.47;;;14.10;99.90;;;;;;5080120;28;20040;-56
2022/06/13 01:04:39;;;;;;;5.53;4.10;;;14.10;99.90;;;;;;5093873;28;20036;-55
2022/06/13 01:07:05;;;;;;;7.32;4.65;;;14.00;99.90;;;;;;5080069;28;20119;-52
2022/06/13 01:12:17;;;;;;;8.13;4.85;;;14.00;99.90;;;;;;5078653;28;20019;-57
2022/06/13 01:14:55;;;;;;;7.68;4.50;;;14.00;99.90;;;;;;5092316;28;20034;-57
2022/06/13 01:17:34;;;;;;;5.70;5.03;;;14.00;99.90;;;;;;5091366;28;20435;-56
2022/06/13 01:20:32;;;;;;;8.30;4.45;;;14.10;99.90;;;;;;5080396;28;20024;-55
2022/06/13 01:23:35;;;;;;;11.85;5.13;;;14.10;99.90;;;;;;5079001;28;20055;-56
2022/06/13 01:26:19;;;;;;;9.63;4.50;;;14.10;99.90;;;;;;5091601;28;20057;-56
2022/06/13 01:29:22;;;;;;;14.52;4.90;;;14.00;99.90;;;;;;5082639;28;20032;-56
2022/06/13 01:32:13;;;;;;;8.32;4.97;;;14.00;99.90;;;;;;5083278;28;20333;-56
2022/06/13 01:34:49;;;;;;;5.50;4.35;;;14.00;99.90;;;;;;5092630;28;20384;-55
2022/06/13 01:37:28;;;;;;;10.80;5.00;;;13.90;99.90;;;;;;5093259;28;20039;-57
2022/06/13 01:40:16;;;;;;;8.73;4.75;;;13.90;99.90;;;;;;5092814;28;20052;-56
2022/06/13 01:42:55;;;;;;;8.20;4.68;;;13.80;99.90;;;;;;5092481;28;20032;-56
2022/06/13 01:45:39;;;;;;;10.30;5.15;;;13.90;99.90;;;;;;5091543;28;20032;-56
2022/06/13 01:48:24;;;;;;;17.13;4.68;;;13.90;99.90;;;;;;5093195;28;20012;-56
2022/06/13 01:50:55;;;;;;;5.65;4.00;;;14.00;99.90;;;;;;5080851;28;20036;-56
2022/06/13 01:53:44;;;;;;;10.30;4.80;;;14.10;99.90;;;;;;5072447;28;20021;-56
2022/06/13 01:56:13;;;;;;;4.32;3.92;;;14.10;99.90;;;;;;5087321;28;20081;-56
2022/06/13 01:58:45;;;;;;;4.38;3.97;;;14.10;99.90;;;;;;5082691;28;20145;-57
2022/06/13 02:01:41;;;;;;;8.88;4.00;;;14.20;99.90;;;;;;5073106;28;20116;-56
2022/06/13 02:04:44;;;;;;;7.60;4.38;;;14.30;99.90;;;;;;5072073;28;20048;-56
2022/06/13 02:07:22;;;;;;;15.35;5.45;;;14.30;99.90;;;;;;5071313;28;20045;-55
2022/06/13 02:09:51;;;;;;;5.07;3.83;;;14.40;99.90;;;;;;5105195;28;20035;-55
2022/06/13 02:12:20;;;;;;;5.93;3.97;;;14.30;99.90;;;;;;5072507;28;20024;-57
2022/06/13 02:14:54;;;;;;;12.57;4.32;;;14.40;99.90;;;;;;5073706;28;20479;-56
2022/06/13 02:17:28;;;;;;;7.80;4.07;;;14.60;99.90;;;;;;5084393;28;20031;-56
2022/06/13 02:19:58;;;;;;;;;;;14.60;99.90;;;;;;5088169;28;20055;-56
2022/06/13 02:22:39;;;;;;;9.05;4.28;;;14.70;99.90;;;;;;5072211;28;20275;-56
2022/06/13 02:25:19;;;;;;;7.22;3.85;;;14.90;99.90;;;;;;5071821;28;20166;-56
2022/06/13 02:27:50;;;;;;;8.10;3.45;;;14.90;99.90;;;;;;5071728;28;20024;-56
2022/06/13 02:30:19;;;;;;;4.22;2.90;;;15.00;99.90;;;;;;5082699;28;20024;-56
2022/06/13 02:33:06;;;;;;;3.40;3.10;;;15.10;99.90;;;;;;5091251;28;20475;-55
2022/06/13 02:35:34;;;;;;;8.65;3.28;;;15.20;99.90;;;;;;5091603;28;20040;-56
2022/06/13 02:38:06;;;;;;;5.05;3.42;;;15.40;99.90;;;;;;5092409;28;20380;-56
2022/06/13 02:40:56;;;;;;;3.33;2.72;;;15.50;99.90;;;;;;5091921;28;20495;-56
2022/06/13 02:43:28;;;;;;;3.42;3.13;;;15.50;99.90;;;;;;5091641;28;20052;-57
2022/06/13 02:46:04;;;;;;;5.22;2.40;;;15.70;99.90;;;;;;5089640;28;20024;-56
2022/06/13 02:49:03;;;;;;;14.60;2.75;;;15.90;99.90;;;;;;5091236;28;20043;-57
2022/06/13 02:51:55;;;;;;;2.22;2.03;;;16.10;99.90;;;;;;5075669;28;20249;-56
2022/06/13 02:54:31;;;;;;;3.30;3.00;;;16.30;99.90;;;;;;5076708;28;20074;-56
2022/06/13 02:57:25;;;;;;;6.50;3.13;;;16.50;99.90;;;;;;5091746;28;20085;-55
2022/06/13 03:00:19;;;;;;;3.22;2.45;;;16.70;99.90;;;;;;5077827;28;20020;-57
2022/06/13 03:03:00;;;;;;;3.78;3.10;;;17.00;99.90;;;;;;5070710;28;20101;-56
2022/06/13 03:05:48;;;;;;;6.68;3.10;;;17.00;99.90;;;;;;5071636;28;20055;-55
2022/06/13 03:08:19;;;;;;;5.97;4.35;;;17.00;99.90;;;;;;5071124;28;20048;-55
2022/06/13 03:11:07;;;;;;;8.13;3.75;;;16.90;99.90;;;;;;5071896;28;20513;-56
2022/06/13 03:14:10;;;;;;;8.80;4.07;;;16.90;99.90;;;;;;5072484;28;20077;-56
2022/06/13 03:16:55;;;;;;;4.35;3.95;;;16.80;99.90;;;;;;5082994;28;20032;-56
2022/06/13 03:19:38;;;;;;;9.40;4.60;;;16.80;99.90;;;;;;5074026;28;20120;-56
2022/06/13 03:22:38;;;;;;;10.93;4.55;;;16.70;99.90;;;;;;5091551;28;20039;-56
2022/06/13 03:25:22;;;;;;;5.80;4.10;;;16.50;99.90;;;;;;5091181;28;20043;-56
2022/06/13 03:27:56;;;;;;;4.35;3.13;;;16.30;99.90;;;;;;5091174;28;20024;-56
2022/06/13 03:30:26;;;;;;;4.47;3.38;;;16.10;99.90;;;;;;5073195;28;20020;-55
2022/06/13 03:35:44;;;;;;;6.85;3.42;;;15.90;99.90;;;;;;5088855;28;20045;-57
2022/06/13 03:38:15;;;;;;;5.13;3.15;;;15.90;99.90;;;;;;5089115;28;20028;-56
2022/06/13 03:40:47;;;;;;;4.13;3.55;;;15.90;99.90;;;;;;5089808;28;20652;-56
2022/06/13 03:43:28;;;;;;;6.88;3.30;;;15.90;99.90;;;;;;5089918;28;20072;-54
2022/06/13 03:46:09;;;;;;;7.47;2.78;;;15.90;99.90;;;;;;5088011;28;20028;-56
2022/06/13 03:48:41;;;;;;;4.22;3.42;;;15.90;99.90;;;;;;5090744;28;20104;-56
2022/06/13 03:51:14;;;;;;;4.30;3.42;;;15.90;99.90;;;;;;5088778;28;20119;-55
2022/06/13 03:53:51;;;;;;;8.23;3.90;;;15.90;99.90;;;;;;5073613;28;20013;-57
2022/06/13 03:56:23;;;;;;;8.55;4.75;;;15.80;99.90;;;;;;5071391;28;20040;-55
2022/06/13 03:59:12;;;;;;;5.13;4.18;;;15.80;99.90;;;;;;5072185;28;20028;-56
2022/06/13 04:01:46;;;;;;;4.47;3.85;;;15.70;99.90;;;;;;5070618;28;20135;-56
2022/06/13 04:04:27;;;;;;;4.85;4.22;;;15.70;99.90;;;;;;5071812;28;20024;-57
2022/06/13 04:06:56;;;;;;;8.02;4.32;;;15.70;99.90;;;;;;5091263;28;20027;-56
2022/06/13 04:09:27;;;;;;;7.10;4.97;;;15.70;99.90;;;;;;5089402;28;20020;-54
2022/06/13 04:12:13;;;;;;;5.43;3.72;;;15.80;99.90;;;;;;5091151;28;20016;-56
2022/06/13 04:15:16;;;;;;;6.93;4.60;;;15.80;99.90;;;;;;5091039;28;20024;-56
2022/06/13 04:17:44;;;;;;;4.50;3.90;;;15.90;99.90;;;;;;5095090;28;20035;-57
2022/06/13 04:20:30;;;;;;;5.13;3.92;;;15.70;99.90;;;;;;5084610;28;20083;-56
2022/06/13 04:23:02;;;;;;;4.57;4.05;;;15.80;99.90;;;;;;5074729;28;20086;-56
2022/06/13 04:25:55;;;;;;;6.10;3.83;;;15.90;99.90;;;;;;5074627;28;20474;-55
2022/06/13 04:28:33;;;;;;;6.90;4.80;;;15.90;99.90;;;;;;5074836;28;20521;-57
2022/06/13 04:31:01;;;;;;;6.28;4.20;;;16.00;99.90;;;;;;5094735;28;20004;-56
2022/06/13 04:33:29;;;;;;;7.13;5.47;;;15.90;99.90;;;;;;5094231;28;20100;-57
2022/06/13 04:35:56;;;;;;;7.80;4.97;;;15.90;99.90;;;;;;5094509;28;20040;-56
2022/06/13 04:38:23;;;;;;;9.57;5.88;;;15.80;99.90;;;;;;5074652;28;20521;-57
2022/06/13 04:40:54;;;;;;;6.70;5.30;;;15.80;99.90;;;;;;5090397;28;20051;-57
2022/06/13 04:43:23;;;;;;;9.98;5.38;;;15.80;99.90;;;;;;5094904;28;20028;-56
2022/06/13 04:46:13;;;;;;;10.07;5.93;;;15.80;99.90;;;;;;5092951;28;20430;-57
2022/06/13 04:48:40;;;;;;;9.45;5.30;;;15.80;99.90;;;;;;5084404;28;20119;-57
2022/06/13 04:51:11;;;;;;;6.82;4.70;;;15.80;99.90;;;;;;5074305;28;20028;-56
2022/06/13 04:53:56;;;;;;;9.40;6.10;;;15.90;99.90;;;;;;5073725;28;20016;-57
2022/06/13 04:56:23;;;;;;;6.95;4.60;;;16.00;99.90;;;;;;5070976;28;20041;-57
2022/06/13 04:58:52;;;;;;;5.32;4.68;;;16.00;99.90;;;;;;5074384;28;20021;-56
2022/06/13 05:01:34;;;;;;;8.15;5.63;;;16.20;99.90;;;;;;5073924;28;20037;-57
2022/06/13 05:04:06;;;;;;;5.35;4.85;;;16.20;99.90;;;;;;5077982;28;20020;-57
2022/06/13 05:06:31;;;;;;;5.22;4.82;;;16.30;99.90;;;;;;5093986;28;20024;-57
2022/06/13 05:09:01;;;;;;;8.88;5.40;;;16.30;99.90;;;;;;5085182;28;20012;-56
2022/06/13 05:11:32;;;;;;;8.45;5.15;;;16.40;99.90;;;;;;5092153;28;20031;-56
2022/06/13 05:14:07;;;;;;;7.13;5.38;;;16.50;99.90;;;;;;5091958;28;20136;-58
2022/06/13 05:17:00;;;;;;;6.03;4.85;;;16.70;99.90;;;;;;5079699;28;20024;-56
2022/06/13 05:19:45;;;;;;;5.68;5.07;;;16.80;99.90;;;;;;5090716;28;20028;-57
2022/06/13 05:22:10;;;;;;;7.65;4.95;;;16.80;99.90;;;;;;5073043;28;20021;-57
2022/06/13 05:24:54;;;;;;;6.07;5.47;;;16.90;99.90;;;;;;5074423;28;20047;-58
2022/06/13 05:27:20;;;;;;;11.02;6.25;;;16.90;99.90;;;;;;5072772;28;20119;-57
2022/06/13 05:29:46;;;;;;;6.63;5.53;;;17.10;99.90;;;;;;5073739;28;20103;-58
2022/06/13 05:32:13;;;;;;;6.00;5.43;;;17.40;99.90;;;;;;5073534;28;20078;-57
2022/06/13 05:34:41;;;;;;;6.95;5.75;;;17.40;99.90;;;;;;5073200;28;20024;-57
2022/06/13 05:37:08;;;;;;;6.93;5.80;;;17.40;99.90;;;;;;5074047;28;20584;-56
2022/06/13 05:39:36;;;;;;;5.80;4.78;;;17.40;99.90;;;;;;5082965;28;20146;-57
2022/06/13 05:42:02;;;;;;;6.28;5.60;;;17.60;99.90;;;;;;5074333;28;20035;-58
2022/06/13 05:44:28;;;;;;;6.55;5.45;;;17.70;99.90;;;;;;5074072;28;20031;-58
2022/06/13 05:46:53;;;;;;;5.85;5.20;;;17.40;99.90;;;;;;5072800;28;20711;-58
2022/06/13 05:49:19;;;;;;;8.73;6.15;;;17.50;99.90;;;;;;5072862;28;20031;-58
2022/06/13 05:51:46;;;;;;;7.22;6.38;;;17.50;99.90;;;;;;5076046;28;20020;-57
2022/06/13 05:54:13;;;;;;;10.93;6.38;;;17.30;99.90;;;;;;5091500;28;20428;-57
2022/06/13 05:56:39;;;;;;;7.30;6.15;;;17.30;99.90;;;;;;5074356;28;20115;-57
2022/06/13 05:59:05;;;;;;;10.63;7.70;;;17.30;99.90;;;;;;5087080;28;20032;-58
2022/06/13 06:01:36;;;;;;;8.98;6.10;;;17.40;99.90;;;;;;5090434;28;20070;-58
2022/06/13 06:04:04;;;;;;;9.27;7.15;;;17.40;99.90;;;;;;5075143;28;20347;-57
2022/06/13 06:06:33;;;;;;;10.38;6.13;;;17.50;99.90;;;;;;5088700;28;20505;-58
2022/06/13 06:09:00;;;;;;;8.35;6.68;;;17.60;99.90;;;;;;5083370;28;20031;-57
2022/06/13 06:11:29;;;;;;;15.57;7.20;;;17.70;99.90;;;;;;5072946;28;20635;-58
2022/06/13 06:13:55;;;;;;;6.70;5.63;;;17.80;99.90;;;;;;5072032;28;20025;-56
2022/06/13 06:16:23;;;;;;;8.93;6.55;;;18.00;99.90;;;;;;5072621;28;20441;-58
2022/06/13 06:18:49;;;;;;;10.57;6.65;;;18.20;99.90;;;;;;5071766;28;20047;-57
2022/06/13 06:21:15;;;;;;;9.40;6.25;;;18.30;99.90;;;;;;5072157;28;20033;-57
2022/06/13 06:23:41;;;;;;;11.38;6.55;;;18.70;99.90;;;;;;5091146;28;20031;-54
2022/06/13 06:26:08;;;;;;;6.63;6.00;;;18.70;99.90;;;;;;5085693;28;20417;-56
2022/06/13 06:28:34;;;;;;;7.75;5.90;;;18.80;99.90;;;;;;5071123;28;20040;-56
2022/06/13 06:31:00;;;;;;;10.48;5.68;;;18.90;99.90;;;;;;5089400;28;20028;-57
2022/06/13 06:33:27;;;;;;;6.47;5.88;;;19.00;99.90;;;;;;5092721;28;20416;-57
2022/06/13 06:35:53;;;;;;;6.10;5.18;;;19.10;99.90;;;;;;5076254;28;20032;-58
2022/06/13 06:38:21;;;;;;;6.80;5.30;;;19.00;99.90;;;;;;5081956;28;20078;-55
2022/06/13 06:40:47;;;;;;;8.23;5.20;;;19.20;99.90;;;;;;5079423;28;20036;-55
2022/06/13 06:43:14;;;;;;;6.35;5.30;;;19.40;99.90;;;;;;5092521;28;20028;-55
2022/06/13 06:45:41;;;;;;;6.13;5.13;;;19.20;99.90;;;;;;5092380;28;20023;-57
2022/06/13 06:48:15;;;;;;;7.82;5.13;;;19.40;99.90;;;;;;5092242;28;20012;-56
2022/06/13 06:50:43;;;;;;;14.50;9.65;;;19.20;99.90;;;;;;5092403;28;20024;-57
2022/06/13 06:53:10;;;;;;;8.02;4.72;;;19.10;99.90;;;;;;5091767;28;20051;-56
2022/06/13 07:01:07;;;;;;;6.57;4.75;;;19.70;99.90;;;;;;5090743;28;20466;-56
2022/06/13 07:03:33;;;;;;;7.32;4.53;;;19.60;99.90;;;;;;5091769;28;20055;-56
2022/06/13 07:05:59;;;;;;;9.07;5.05;;;19.80;99.90;;;;;;5091134;28;20066;-54
2022/06/13 07:08:27;;;;;;;4.93;4.43;;;19.80;99.90;;;;;;5092928;28;20281;-56
2022/06/13 07:10:53;;;;;;;11.75;5.35;;;19.50;99.90;;;;;;5085635;28;20042;-55
2022/06/13 07:13:19;;;;;;;7.32;5.18;;;19.40;99.90;;;;;;5085025;28;20024;-56
2022/06/13 07:15:48;;;;;;;19.08;5.38;;;19.50;99.90;;;;;;5092164;28;20033;-56
2022/06/13 07:18:14;;;;;;;8.32;5.50;;;19.50;99.90;;;;;;5072189;28;20016;-56
2022/06/13 07:20:39;;;;;;;5.82;5.30;;;20.10;99.90;;;;;;5071921;28;20453;-57
2022/06/13 07:23:06;;;;;;;8.75;5.07;;;20.00;99.90;;;;;;5071829;28;20028;-57
2022/06/13 07:25:33;;;;;;;5.88;4.65;;;19.60;99.90;;;;;;5071815;28;20024;-57
2022/06/13 07:27:58;;;;;;;9.07;4.78;;;20.00;99.90;;;;;;5071707;28;20036;-53
2022/06/13 07:30:27;;;;;;;6.00;5.13;;;19.90;99.90;;;;;;5071979;28;20024;-54
2022/06/13 07:32:54;;;;;;;5.70;5.20;;;19.80;99.90;;;;;;5071537;28;20005;-56
2022/06/13 07:35:22;;;;;;;9.18;6.25;;;19.60;99.90;;;;;;5072142;28;20052;-54
2022/06/13 07:40:32;;;;;;;13.02;6.57;;;20.20;99.90;;;;;;5072008;28;20489;-56
2022/06/13 07:43:03;;;;;;;7.53;5.95;;;20.50;99.90;;;;;;5071853;28;20028;-55
2022/06/13 07:45:33;;;;;;;6.80;5.55;;;20.80;99.90;;;;;;5070998;28;20116;-57
2022/06/13 07:47:59;;;;;;;8.75;6.47;;;20.80;99.90;;;;;;5071411;28;20090;-57
2022/06/13 07:50:27;;;;;;;11.02;6.70;;;20.60;99.90;;;;;;5070824;28;20508;-57
2022/06/13 07:52:57;;;;;;;6.28;5.60;;;20.70;99.90;;;;;;5071806;28;20020;-57
2022/06/13 07:55:25;;;;;;;8.32;5.95;;;20.90;99.90;;;;;;5071144;28;20460;-57
2022/06/13 07:57:51;;;;;;;5.60;4.95;;;21.10;99.90;;;;;;5076698;28;20024;-58
2022/06/13 08:00:25;;;;;;;7.32;4.43;;;21.20;99.90;;;;;;5089522;28;20031;-57
2022/06/13 08:02:51;;;;;;;9.85;4.18;;;21.20;99.90;;;;;;5091580;28;20016;-58
2022/06/13 08:05:17;;;;;;;4.90;4.40;;;21.10;99.90;;;;;;5091117;28;20028;-57
2022/06/13 08:07:43;;;;;;;4.30;3.72;;;21.20;99.90;;;;;;5091420;28;20017;-57
2022/06/13 08:10:09;;;;;;;4.10;3.70;;;21.20;99.90;;;;;;5091336;28;20584;-58
2022/06/13 08:12:35;;;;;;;4.22;3.75;;;21.50;99.90;;;;;;5090969;28;20031;-57
2022/06/13 08:15:00;;;;;;;3.67;3.38;;;21.40;99.90;;;;;;5077812;28;20468;-58
2022/06/13 08:17:26;;;;;;;3.70;3.03;;;21.40;99.90;;;;;;5070031;28;20024;-58
2022/06/13 08:19:52;;;;;;;6.05;3.47;;;20.80;99.90;;;;;;5068977;28;20380;-57
2022/06/13 08:22:18;;;;;;;3.15;2.40;;;20.40;99.90;;;;;;5070346;28;20098;-57
2022/06/13 08:24:44;;;;;;;3.25;2.70;;;20.30;99.90;;;;;;5103192;28;20099;-58
2022/06/13 08:27:10;;;;;;;3.60;2.53;;;20.20;99.90;;;;;;5088220;28;20123;-56
2022/06/13 08:29:36;;;;;;;2.33;2.13;;;20.10;99.90;;;;;;5091111;28;20095;-58
2022/06/13 08:32:03;;;;;;;1.90;1.75;;;20.00;99.90;;;;;;5090986;28;20441;-57
2022/06/13 08:34:30;;;;;;;2.65;1.80;;;20.10;99.90;;;;;;5091056;28;20497;-57
2022/06/13 08:36:56;;;;;;;3.88;2.20;;;20.10;99.90;;;;;;5091037;28;20032;-57
2022/06/13 08:39:23;;;;;;;2.78;1.63;;;20.10;99.90;;;;;;5091057;28;20130;-57
2022/06/13 08:42:10;;;;;;;3.65;2.10;;;20.50;99.90;;;;;;5074097;28;20029;-57
2022/06/13 08:44:51;;;;;;;3.53;1.75;;;20.80;99.90;;;;;;5071092;28;20024;-57
2022/06/13 08:47:42;;;;;;;3.30;2.20;;;21.00;99.90;;;;;;5070813;28;20047;-57
2022/06/13 08:50:37;;;;;;;3.72;1.30;;;20.80;99.90;;;;;;5070688;28;20032;-57
2022/06/13 08:53:05;;;;;;;;;;;20.50;99.90;;;;;;5071240;28;20031;-57
2022/06/13 08:55:37;;;;;;;2.45;1.70;;;20.10;99.90;;;;;;5078723;28;19915;-56
2022/06/13 08:58:24;;;;;;;2.97;1.67;;;20.20;99.90;;;;;;5090859;28;20024;-55
2022/06/13 09:00:57;;;;;;;2.10;1.85;;;20.30;99.90;;;;;;5091015;28;20028;-58
2022/06/13 09:03:25;;;;;;;;;;;20.50;99.90;;;;;;5080658;28;20052;-57
2022/06/13 09:06:02;;;;;;;2.65;1.40;;;20.50;99.90;;;;;;5074194;28;20389;-58
2022/06/13 09:08:48;;;;;;;2.78;1.65;;;20.70;99.90;;;;;;5073845;28;20428;-57
2022/06/13 09:11:26;;;;;;;2.35;1.30;;;21.10;99.90;;;;;;5074085;28;20386;-56
2022/06/13 09:14:12;;;;;;;2.20;1.83;;;21.10;99.90;;;;;;5072167;28;20020;-57
2022/06/13 09:16:41;;;;;;;2.85;2.03;;;21.40;99.90;;;;;;5087803;28;20035;-55
2022/06/13 09:19:44;;;;;;;4.72;2.25;;;21.40;99.90;;;;;;5094029;28;20111;-58
2022/06/13 09:22:40;;;;;;;8.00;1.80;;;21.50;99.90;;;;;;5070930;28;20037;-57
2022/06/13 09:25:16;;;;;;;2.45;1.80;;;21.10;99.90;;;;;;5093681;28;20020;-57
2022/06/13 09:27:54;;;;;;;2.45;1.92;;;21.10;99.90;;;;;;5094087;28;20016;-57
2022/06/13 09:30:33;;;;;;;1.98;1.73;;;20.90;99.90;;;;;;5092687;28;20115;-54
2022/06/13 09:33:07;;;;;;;3.22;2.00;;;21.10;99.90;;;;;;5093621;28;20024;-56
2022/06/13 09:35:53;;;;;;;;;;;21.10;99.90;;;;;;5093291;28;20024;-54
2022/06/13 09:38:23;;;;;;;6.18;1.95;;;20.90;99.90;;;;;;5093339;28;20224;-57
2022/06/13 09:41:01;;;;;;;2.65;1.80;;;20.70;99.90;;;;;;5093752;28;20379;-57
2022/06/13 09:43:38;;;;;;;3.80;1.77;;;20.50;99.90;;;;;;5093623;28;20024;-57
2022/06/13 09:46:33;;;;;;;2.20;2.00;;;20.30;99.90;;;;;;5092811;28;20028;-57
2022/06/13 09:49:02;;;;;;;3.78;1.60;;;20.30;99.90;;;;;;5092441;28;20035;-57
2022/06/13 09:51:51;;;;;;;3.03;1.50;;;20.60;99.90;;;;;;5093516;28;20025;-55
2022/06/13 09:54:31;;;;;;;7.85;2.00;;;20.80;99.90;;;;;;5090059;28;20036;-55
2022/06/13 09:57:09;;;;;;;2.65;2.25;;;20.90;99.90;;;;;;5093500;28;20031;-54
2022/06/13 09:59:48;;;;;;;4.18;1.58;;;21.10;99.90;;;;;;5093666;28;20473;-55
2022/06/13 10:02:19;;;;;;;4.57;1.83;;;20.70;99.90;;;;;;5091185;28;20027;-53
2022/06/13 10:05:03;;;;;;;3.78;1.80;;;20.70;99.90;;;;;;5093125;28;20091;-55
2022/06/13 10:07:47;;;;;;;2.28;1.95;;;21.00;99.90;;;;;;5073121;28;20081;-57
2022/06/13 10:10:40;;;;;;;4.93;2.35;;;21.90;99.90;;;;;;5072473;28;20108;-54
2022/06/13 10:13:19;;;;;;;3.30;1.75;;;22.50;99.90;;;;;;5072435;28;20021;-56
2022/06/13 10:16:29;;;;;;;2.00;1.70;;;22.30;99.90;;;;;;5074432;28;20034;-54
2022/06/13 10:19:31;;;;;;;6.25;1.55;;;23.30;99.90;;;;;;5073004;28;20032;-55
2022/06/13 10:22:28;;;;;;;3.58;1.80;;;23.20;99.90;;;;;;5072626;28;20603;-55
2022/06/13 10:25:06;;;;;;;4.55;1.77;;;23.00;99.90;;;;;;5072604;28;20025;-56
2022/06/13 10:27:55;;;;;;;2.30;1.45;;;22.90;99.90;;;;;;5072639;28;20025;-56
2022/06/13 10:30:59;;;;;;;7.22;1.90;;;23.60;99.90;;;;;;5076055;28;20073;-56
2022/06/13 10:33:42;;;;;;;2.60;2.08;;;23.10;99.90;;;;;;5091984;28;20036;-54
2022/06/13 10:36:49;;;;;;;4.97;2.55;;;23.20;99.90;;;;;;5092768;28;20028;-55
2022/06/13 10:39:19;;;;;;;2.40;1.80;;;23.10;99.90;;;;;;5086908;28;20044;-52
2022/06/13 10:41:51;;;;;;;4.60;1.95;;;22.90;99.90;;;;;;5092163;28;20035;-53
2022/06/13 10:44:19;;;;;;;3.28;1.92;;;22.80;99.90;;;;;;5093481;28;20604;-52
2022/06/13 10:46:50;;;;;;;3.42;2.03;;;22.90;99.90;;;;;;5089878;28;20031;-54
2022/06/13 10:49:23;;;;;;;3.45;2.10;;;22.90;99.90;;;;;;5092433;28;20016;-56
2022/06/13 10:51:51;;;;;;;3.80;2.47;;;22.90;99.90;;;;;;5092453;28;20024;-54
2022/06/13 10:54:31;;;;;;;4.22;2.30;;;22.70;99.90;;;;;;5091036;28;20046;-55
2022/06/13 10:57:03;;;;;;;7.80;2.38;;;22.60;99.90;;;;;;5090672;28;20494;-55
2022/06/13 10:59:31;;;;;;;2.95;2.53;;;22.40;99.90;;;;;;5090391;28;20043;-55
2022/06/13 11:02:20;;;;;;;2.47;2.10;;;21.80;99.90;;;;;;5104450;28;20487;-55
2022/06/13 11:05:01;;;;;;;4.32;2.53;;;21.60;99.90;;;;;;5071829;28;20028;-55
2022/06/13 11:07:27;;;;;;;3.30;2.35;;;21.40;99.90;;;;;;5071758;28;20090;-55
2022/06/13 11:09:57;;;;;;;4.65;2.38;;;21.30;99.90;;;;;;5071851;28;20076;-55
2022/06/13 11:12:29;;;;;;;3.85;2.25;;;21.10;99.90;;;;;;5072874;28;20055;-56
2022/06/13 11:23:50;;;;;;;6.20;2.83;;;21.20;99.90;;;;;;5071332;28;20132;-55
2022/06/13 11:29:03;;;;;;;5.03;3.17;;;22.30;99.90;;;;;;5076666;28;20532;-55
2022/06/13 11:31:29;;;;;;;3.30;3.03;;;22.80;99.90;;;;;;5090199;28;20020;-56
2022/06/13 11:33:55;;;;;;;2.97;2.75;;;23.00;99.90;;;;;;5091941;28;20149;-55
2022/06/13 11:36:27;;;;;;;3.42;2.60;;;23.10;99.90;;;;;;5091475;28;20027;-52
2022/06/13 11:39:02;;;;;;;9.32;3.13;;;23.10;99.90;;;;;;5091590;28;20027;-56
2022/06/13 11:41:41;;;;;;;8.38;3.08;;;22.40;99.90;;;;;;5091612;28;20032;-55
2022/06/13 11:44:12;;;;;;;5.22;3.25;;;21.40;99.90;;;;;;5090944;28;20024;-56
2022/06/13 11:46:53;;;;;;;7.03;2.85;;;21.10;99.90;;;;;;5091494;28;20024;-54
2022/06/13 11:49:39;;;;;;;3.95;3.03;;;20.80;99.90;;;;;;5091516;28;20035;-55
2022/06/13 11:55:24;;;;;;;3.65;3.00;;;20.60;99.90;;;;;;5091664;28;20101;-56
2022/06/13 11:57:56;;;;;;;3.00;2.70;;;21.40;99.90;;;;;;5091699;28;20421;-56
2022/06/13 12:00:49;;;;;;;3.58;3.00;;;22.00;99.90;;;;;;5071084;28;20066;-55
2022/06/13 12:03:24;;;;;;;5.03;3.35;;;22.50;99.90;;;;;;5070383;28;20036;-56
2022/06/13 12:06:07;;;;;;;6.53;3.33;;;22.90;99.90;;;;;;5071193;28;20040;-55
2022/06/13 12:08:33;;;;;;;6.07;3.80;;;22.90;99.90;;;;;;5071439;28;20103;-54
2022/06/13 12:11:13;;;;;;;6.40;4.00;;;23.00;99.90;;;;;;5069853;28;20131;-55
2022/06/13 12:13:44;;;;;;;4.28;3.72;;;22.90;99.90;;;;;;5069758;28;20031;-54
2022/06/13 12:16:13;;;;;;;3.33;3.03;;;23.30;99.90;;;;;;5074561;28;20029;-51
2022/06/13 12:19:07;;;;;;;3.90;3.53;;;23.60;99.90;;;;;;5073778;28;20039;-51
2022/06/13 12:21:39;;;;;;;11.00;4.00;;;23.50;99.90;;;;;;5071690;28;20104;-52
2022/06/13 12:24:21;;;;;;;7.38;3.75;;;23.40;99.90;;;;;;5072559;28;20067;-54
2022/06/13 12:27:05;;;;;;;4.40;3.70;;;23.50;99.90;;;;;;5073030;28;20031;-54
2022/06/13 12:29:39;;;;;;;5.50;3.78;;;23.70;99.90;;;;;;5089069;28;20028;-53
2022/06/13 12:32:47;;;;;;;9.60;3.35;;;24.00;99.90;;;;;;5091514;28;20031;-54
2022/06/13 12:35:30;;;;;;;5.13;3.08;;;25.00;99.90;;;;;;5070064;28;20017;-55
2022/06/13 12:38:38;;;;;;;5.32;2.03;;;26.70;99.30;;;;;;5072429;28;20024;-53
2022/06/13 12:41:12;;;;;;;3.92;1.98;;;27.90;95.80;;;;;;5079314;28;20059;-54
2022/06/13 12:44:01;;;;;;;5.85;1.90;;;26.80;87.70;;;;;;5088630;28;20541;-55
2022/06/13 12:46:53;;;;;;;3.55;1.85;;;27.40;82.80;;;;;;5075421;28;20024;-54
2022/06/13 12:49:40;;;;;;;3.40;2.08;;;27.60;81.10;;;;;;5075673;28;20012;-55
2022/06/13 12:52:37;;;;;;;5.30;2.03;;;26.70;82.60;;;;;;5074741;28;20012;-54
2022/06/13 12:55:30;;;;;;;4.35;1.85;;;25.60;81.50;;;;;;5074337;28;20025;-54
2022/06/13 12:58:07;;;;;;;4.85;1.70;;;25.40;78.00;;;;;;5083611;28;20102;-52
2022/06/13 13:00:48;;;;;;;9.10;2.15;;;25.30;72.90;;;;;;5094249;28;20024;-54
2022/06/13 13:03:41;;;;;;;5.45;1.75;;;25.70;71.00;;;;;;5095974;28;20313;-51
2022/06/13 13:06:16;;;;;;;2.38;1.45;;;25.30;75.00;;;;;;5095847;28;20060;-51
2022/06/13 13:08:47;;;;;;;4.88;1.92;;;26.20;73.30;;;;;;5094802;28;20023;-55
2022/06/13 13:11:37;;;;;;;9.43;1.85;;;25.90;73.90;;;;;;5094340;28;20023;-55
2022/06/13 13:14:20;;;;;;;5.20;1.48;;;26.50;72.70;;;;;;5074729;28;20093;-54
2022/06/13 13:16:51;;;;;;;2.70;1.17;;;27.70;69.40;;;;;;5085721;28;20032;-52
2022/06/13 13:19:17;;;;;;;5.70;1.27;;;28.80;66.80;;;;;;5093774;28;20075;-54
2022/06/13 13:21:59;;;;;;;3.92;1.10;;;29.10;59.70;;;;;;5063953;28;20052;-55
2022/06/13 13:24:49;;;;;;;6.43;1.00;;;28.60;58.30;;;;;;5073118;28;20041;-54
2022/06/13 13:27:20;;;;;;;4.38;0.95;;;27.90;56.00;;;;;;5070521;28;20028;-55
2022/06/13 13:30:05;;;;;;;3.08;0.60;;;27.90;50.70;;;;;;5074122;28;20169;-51
2022/06/13 13:32:52;;;;;;;3.25;0.82;;;27.70;49.60;;;;;;5073267;28;20043;-54
2022/06/13 13:35:30;;;;;;;0.70;0.70;;;27.10;52.00;;;;;;5082219;28;20091;-54
2022/06/13 13:38:15;;;;;;;8.07;1.00;;;27.30;57.40;;;;;;5082809;28;20025;-55
2022/06/13 13:41:00;;;;;;;2.53;1.10;;;26.50;53.90;;;;;;5082585;28;20116;-55
2022/06/13 13:43:41;;;;;;;1.67;1.20;;;27.00;56.10;;;;;;5082723;28;20466;-53
2022/06/13 13:46:35;;;;;;;5.25;1.30;;;28.20;55.60;;;;;;5082872;28;20020;-56
2022/06/13 13:49:14;;;;;;;6.32;1.30;;;28.50;51.90;;;;;;5066762;28;20101;-53
2022/06/13 13:51:58;;;;;;;3.08;0.85;;;30.40;48.30;;;;;;5073510;28;20033;-54
2022/06/13 13:54:53;;;;;;;5.72;1.23;;;30.50;47.00;;;;;;5082019;28;20364;-55
2022/06/13 13:57:41;;;;;;;5.80;0.98;;;28.70;45.50;;;;;;5083274;28;20659;-57
2022/06/13 14:00:26;;;;;;;1.98;0.88;;;28.80;46.10;;;;;;5067541;28;20036;-56